Flight Track Log - Related Links

Times and Time Zones

All times are in EDT time to prevent confusion due to time zone crossing. See the SWA2166 flight status page for this flight to view local times or setup timezone preferences in your user account.

Time Position Orientation Groundspeed Altitude Reporting Facility
EDT Latitude Longitude Course Direction KTS MPH feet Rate Location/Type
Tue 05:00:48 PM 28.4167 -81.3000 204° Southwest 152 175 500  Level Orlando TRACON
Tue 05:01:43 PM 28.3833 -81.3167 204° Southwest 217 250 2,500 2,713 Climbing Orlando TRACON
Tue 05:02:43 PM 28.3500 -81.3667 233° Southwest 231 266 5,700 3,150 Climbing Orlando TRACON
Tue 05:03:43 PM 28.3333 -81.4500 257° West 256 295 8,800 2,900 Climbing Orlando TRACON
Tue 05:04:43 PM 28.3333 -81.5500 270° West 313 360 11,500 2,448 Climbing Orlando TRACON
Tue 05:07:04 PM 28.3769 -81.8119 281° West 394 453 17,000 2,657 Climbing Jacksonville Center
Tue 05:08:04 PM 28.3947 -81.9275 280° West 388 447 20,400 3,076 Climbing Jacksonville Center
Tue 05:09:03 PM 28.4142 -82.0239 283° West 382 440 23,100 2,824 Climbing Jacksonville Center
Tue 05:10:03 PM 28.4400 -82.1656 282° West 387 445 26,000 2,150 Climbing Jacksonville Center
Tue 05:11:03 PM 28.4614 -82.2858 281° West 387 445 27,400 1,850 Climbing Jacksonville Center
Tue 05:12:03 PM 28.4850 -82.4083 282° West 392 451 29,700 2,132 Climbing Jacksonville Center
Tue 05:13:04 PM 28.5083 -82.5242 283° West 404 465 31,700 1,900 Climbing Jacksonville Center
Tue 05:14:03 PM 28.5775 -82.6231 309° West 404 465 33,500 1,866 Climbing Jacksonville Center
Tue 05:15:03 PM 28.6778 -82.6961 327° Northwest 404 465 35,400 1,850 Climbing Jacksonville Center
Tue 05:16:03 PM 28.7717 -82.7717 325° Northwest 409 471 37,200 1,800 Climbing Jacksonville Center
Tue 05:17:03 PM 28.8678 -82.8475 325° Northwest 419 482 39,000 1,400 Climbing Jacksonville Center
Tue 05:18:03 PM 28.9617 -82.9233 325° Northwest 419 482 40,000 500 Climbing Jacksonville Center
Tue 05:19:03 PM 29.0578 -82.9994 325° Northwest 419 482 40,000  Level Jacksonville Center
Tue 05:20:03 PM 29.1517 -83.0733 326° Northwest 419 482 40,000  Level Jacksonville Center
Tue 05:21:03 PM 29.2453 -83.1497 325° Northwest 419 482 40,000  Level Jacksonville Center
Tue 05:22:03 PM 29.3392 -83.2236 326° Northwest 414 476 40,000  Level Jacksonville Center
Tue 05:23:03 PM 29.4286 -83.2981 324° Northwest 409 471 40,000  Level Jacksonville Center
Tue 05:24:03 PM 29.5225 -83.3747 325° Northwest 409 471 40,000  Level Jacksonville Center
Tue 05:25:03 PM 29.6161 -83.4469 326° Northwest 409 471 40,000  Level Jacksonville Center
Tue 05:26:03 PM 29.7097 -83.5239 324° Northwest 409 471 40,000  Level Jacksonville Center
Tue 05:27:03 PM 29.8031 -83.5986 325° Northwest 409 471 40,000  Level Jacksonville Center
Tue 05:28:03 PM 29.8967 -83.6761 324° Northwest 409 471 40,000  Level Jacksonville Center
Tue 05:29:03 PM 29.9900 -83.7511 325° Northwest 409 471 40,000  Level Jacksonville Center
Tue 05:30:03 PM 30.0836 -83.8264 325° Northwest 409 471 40,000  Level Jacksonville Center
Tue 05:31:04 PM 30.1831 -83.9067 325° Northwest 404 465 40,000  Level Jacksonville Center
Tue 05:32:03 PM 30.2744 -83.9844 324° Northwest 404 465 40,000  Level Jacksonville Center
Tue 05:33:03 PM 30.3678 -84.0578 326° Northwest 404 465 40,000  Level Jacksonville Center
Tue 05:34:03 PM 30.4567 -84.1336 324° Northwest 404 465 40,000  Level Jacksonville Center
Tue 05:35:03 PM 30.5478 -84.2072 325° Northwest 404 465 40,000  Level Jacksonville Center
Tue 05:36:03 PM 30.6286 -84.2736 325° Northwest 399 459 40,000  Level Jacksonville Center
Tue 05:37:04 PM 30.7197 -84.3497 324° Northwest 404 465 40,000  Level Jacksonville Center
Tue 05:38:03 PM 30.8125 -84.4286 324° Northwest 404 465 40,000  Level Jacksonville Center
Tue 05:39:03 PM 30.9014 -84.5025 325° Northwest 404 465 40,000  Level Jacksonville Center
Tue 05:40:04 PM 30.9925 -84.5792 324° Northwest 404 465 40,000  Level Jacksonville Center
Tue 05:41:03 PM 31.0853 -84.6586 324° Northwest 404 465 40,000 -252 Level Jacksonville Center
Tue 05:42:03 PM 31.1781 -84.7356 325° Northwest 404 465 39,500 -831 Descending Jacksonville Center
Tue 05:44:18 PM 31.3847 -84.9097 324° Northwest 415 478 37,300 -985 Descending Atlanta Center
Tue 05:45:18 PM 31.4758 -84.9861 324° Northwest 408 470 36,300 -950 Descending Atlanta Center
Tue 05:46:18 PM 31.5669 -85.0625 324° Northwest 402 463 35,400 -850 Descending Atlanta Center
Tue 05:47:18 PM 31.6667 -85.1442 325° Northwest 402 463 34,600 -1,000 Descending Atlanta Center
Tue 05:48:18 PM 31.7639 -85.2258 324° Northwest 414 476 33,400 -1,050 Descending Atlanta Center
Tue 05:49:18 PM 31.8611 -85.3103 324° Northwest 426 490 32,500 -950 Descending Atlanta Center
Tue 05:50:18 PM 31.9606 -85.3950 324° Northwest 437 503 31,500 -1,000 Descending Atlanta Center
Tue 05:51:18 PM 32.0597 -85.4800 324° Northwest 437 503 30,500 -1,000 Descending Atlanta Center
Tue 05:52:18 PM 32.1567 -85.5647 324° Northwest 437 503 29,500 -1,000 Descending Atlanta Center
Tue 05:53:18 PM 32.2539 -85.6475 324° Northwest 432 497 28,500 -1,050 Descending Atlanta Center
Tue 05:54:18 PM 32.3467 -85.7278 324° Northwest 426 490 27,400 -1,000 Descending Atlanta Center
Tue 05:55:18 PM 32.4372 -85.8133 321° Northwest 421 484 26,500 -950 Descending Atlanta Center
Tue 05:56:18 PM 32.5300 -85.8892 325° Northwest 415 478 25,500 -1,300 Descending Atlanta Center
Tue 05:57:18 PM 32.6208 -85.9650 325° Northwest 409 471 23,900 -1,800 Descending Atlanta Center
Tue 05:58:18 PM 32.7050 -86.0408 323° Northwest 398 458 21,900 -1,500 Descending Atlanta Center
Tue 05:59:18 PM 32.7894 -86.1169 323° Northwest 393 452 20,900 -1,050 Descending Atlanta Center
Tue 06:00:18 PM 32.8758 -86.1931 324° Northwest 387 445 19,800 -1,350 Descending Atlanta Center
Tue 06:00:38 PM 32.8983 -86.2183 317° Northwest 376 433 19,100 -2,000 Descending Atlanta Center
Tue 06:01:18 PM 32.9581 -86.2644 327° Northwest 382 440 17,800 -2,100 Descending Atlanta Center
Tue 06:02:18 PM 33.0381 -86.3333 324° Northwest 371 427 15,600 -2,200 Descending Atlanta Center
Tue 06:03:18 PM 33.1161 -86.4050 322° Northwest 361 415 13,400 -2,150 Descending Atlanta Center
Tue 06:04:18 PM 33.1919 -86.4714 324° Northwest 356 410 11,300 -1,650 Descending Atlanta Center
Tue 06:05:18 PM 33.2639 -86.5356 323° Northwest 342 394 10,100 -1,200 Descending Atlanta Center
Tue 06:06:18 PM 33.3233 -86.5869 324° Northwest 313 360 8,900 -1,400 Descending Atlanta Center
Tue 06:07:18 PM 33.4067 -86.5919 357° North 283 326 7,300 -1,700 Descending Atlanta Center
Tue 06:08:18 PM 33.4861 -86.5942 359° North 283 326 5,500 -1,512 Descending Atlanta Center
Tue 06:09:25 PM 33.5839 -86.6022 356° North 267 307 4,100 -1,000 Descending Atlanta Center
Tue 06:10:18 PM 33.6361 -86.6011 North 268 308 3,500 -678 Descending Atlanta Center
Tue 06:11:20 PM 33.6433 -86.6514 280° West 144 166 2,800 -732 Descending Atlanta Center
Tue 06:12:21 PM 33.6117 -86.6753 212° Southwest 132 152 2,000 -744 Descending Atlanta Center
Tue 06:13:21 PM 33.5900 -86.7122 235° Southwest 138 159 1,300 -700 Descending Atlanta Center
Tue 06:15:00 PM 33.5639 -86.7523 140° Southeast  Level Estimated
Tue 06:22:00 PM 33.5639 -86.7523 140° Southeast  Level Estimated

Login

Don't have an account? Register now (free) for customized features, flight alerts, and more!